createdAt,value
2022-09-06T00:01:52.238Z,6.43
2022-09-06T00:04:38.276Z,7.80
2022-09-06T00:07:25.014Z,5.00
2022-09-06T00:10:11.639Z,4.88
2022-09-06T00:13:02.465Z,7.15
2022-09-06T00:15:48.648Z,6.30
2022-09-06T00:18:35.311Z,5.55
2022-09-06T00:21:27.218Z,7.63
2022-09-06T00:24:13.613Z,6.00
2022-09-06T00:27:00.720Z,5.60
2022-09-06T00:29:46.947Z,7.90
2022-09-06T00:32:33.284Z,5.78
2022-09-06T00:35:20.937Z,7.78
2022-09-06T00:38:07.302Z,8.27
2022-09-06T00:40:53.784Z,6.72
2022-09-06T00:43:40.961Z,9.95
2022-09-06T00:49:30.937Z,6.90
2022-09-06T00:52:19.638Z,6.55
2022-09-06T00:55:06.470Z,5.50
2022-09-06T00:57:53.313Z,6.25
2022-09-06T01:00:39.272Z,6.13
2022-09-06T01:03:26.365Z,6.25
2022-09-06T01:06:12.324Z,5.85
2022-09-06T01:09:19.809Z,7.53
2022-09-06T01:12:31.111Z,5.97
2022-09-06T01:15:45.967Z,8.38
2022-09-06T01:19:13.870Z,7.18
2022-09-06T01:22:35.189Z,6.03
2022-09-06T01:25:39.709Z,8.10
2022-09-06T01:28:48.161Z,7.88
2022-09-06T01:31:39.642Z,9.90
2022-09-06T01:34:33.016Z,7.00
2022-09-06T01:37:22.349Z,5.80
2022-09-06T01:40:08.938Z,7.70
2022-09-06T01:42:57.404Z,5.50
2022-09-06T01:46:16.310Z,5.88
2022-09-06T01:49:24.405Z,7.45
2022-09-06T01:52:16.382Z,7.28
2022-09-06T01:55:28.355Z,5.95
2022-09-06T01:58:26.814Z,7.47
2022-09-06T02:01:31.505Z,5.88
2022-09-06T02:04:29.988Z,5.75
2022-09-06T02:07:22.466Z,6.13
2022-09-06T02:10:21.473Z,5.40
2022-09-06T02:13:09.778Z,5.70
2022-09-06T02:16:03.213Z,5.35
2022-09-06T02:19:22.969Z,6.45
2022-09-06T02:22:11.786Z,5.45
2022-09-06T02:25:00.284Z,7.32
2022-09-06T02:27:46.898Z,5.75
2022-09-06T02:30:38.155Z,6.80
2022-09-06T02:33:28.796Z,5.68
2022-09-06T02:36:15.943Z,5.30
2022-09-06T02:39:02.370Z,5.80
2022-09-06T02:41:48.734Z,8.15
2022-09-06T02:44:34.873Z,6.00
2022-09-06T02:47:21.085Z,5.35
2022-09-06T02:50:08.289Z,7.20
2022-09-06T02:53:12.560Z,7.78
2022-09-06T02:55:59.465Z,6.55
2022-09-06T02:58:45.918Z,5.35
2022-09-06T03:01:33.455Z,7.22
2022-09-06T03:04:19.947Z,9.18
2022-09-06T03:07:06.486Z,5.65
2022-09-06T03:09:52.547Z,7.13
2022-09-06T03:12:38.720Z,10.30
2022-09-06T03:15:24.965Z,6.07
2022-09-06T03:18:11.354Z,6.63
2022-09-06T03:23:45.890Z,8.63
2022-09-06T03:26:32.153Z,7.38
2022-09-06T03:29:18.618Z,6.35
2022-09-06T03:32:05.016Z,8.23
2022-09-06T03:34:51.610Z,7.10
2022-09-06T03:37:37.718Z,6.28
2022-09-06T03:40:24.187Z,6.15
2022-09-06T03:43:10.230Z,5.85
2022-09-06T03:45:57.809Z,7.57
2022-09-06T03:48:44.583Z,6.55
2022-09-06T03:54:16.575Z,5.90
2022-09-06T03:57:02.794Z,5.95
2022-09-06T03:59:49.111Z,6.93
2022-09-06T04:02:35.713Z,9.13
2022-09-06T04:05:22.185Z,6.38
2022-09-06T04:08:08.141Z,6.97
2022-09-06T04:10:55.484Z,8.60
2022-09-06T04:13:41.977Z,7.32
2022-09-06T04:16:28.283Z,6.60
2022-09-06T04:19:14.717Z,7.95
2022-09-06T04:22:01.025Z,9.55
2022-09-06T04:24:46.998Z,5.18
2022-09-06T04:27:33.500Z,6.53
2022-09-06T04:30:19.474Z,8.10
2022-09-06T04:33:05.851Z,6.55
2022-09-06T04:35:53.498Z,6.43
2022-09-06T04:38:44.867Z,6.55
2022-09-06T04:41:31.167Z,7.10
2022-09-06T04:44:17.362Z,6.77
2022-09-06T04:47:12.700Z,5.93
2022-09-06T04:49:58.692Z,5.80
2022-09-06T04:52:44.688Z,6.00
2022-09-06T04:55:31.385Z,6.35
2022-09-06T04:58:17.571Z,7.10
2022-09-06T05:01:04.187Z,6.53
2022-09-06T05:03:53.946Z,5.93
2022-09-06T05:06:43.266Z,6.50
2022-09-06T05:09:29.817Z,6.43
2022-09-06T05:12:16.217Z,9.23
2022-09-06T05:15:02.197Z,6.33
2022-09-06T05:17:48.537Z,12.93
2022-09-06T05:20:35.098Z,5.90
2022-09-06T05:23:22.438Z,5.50
2022-09-06T05:26:08.936Z,8.52
2022-09-06T05:28:54.944Z,12.80
2022-09-06T05:31:41.455Z,9.52
2022-09-06T05:34:27.700Z,7.60
2022-09-06T05:37:13.818Z,6.53
2022-09-06T05:40:01.809Z,12.65
2022-09-06T05:42:48.021Z,11.98
2022-09-06T05:45:33.959Z,11.37
2022-09-06T05:48:20.446Z,9.98
2022-09-06T05:51:09.545Z,11.73
2022-09-06T05:53:55.926Z,7.60
2022-09-06T05:56:42.509Z,9.60
2022-09-06T05:59:28.994Z,10.80
2022-09-06T06:02:15.290Z,8.23
2022-09-06T06:05:02.136Z,8.43
2022-09-06T06:07:49.027Z,6.50
2022-09-06T06:10:38.450Z,9.48
2022-09-06T06:13:25.115Z,9.98
2022-09-06T06:16:13.403Z,8.52
2022-09-06T06:19:00.039Z,11.88
2022-09-06T06:21:46.613Z,13.25
2022-09-06T06:24:32.813Z,8.50
2022-09-06T06:27:18.912Z,8.38
2022-09-06T06:30:05.314Z,7.17
2022-09-06T06:35:40.218Z,8.32
2022-09-06T06:38:40.481Z,6.15
2022-09-06T06:41:28.922Z,8.38
2022-09-06T06:44:15.521Z,9.63
2022-09-06T06:47:02.707Z,5.22
2022-09-06T06:49:49.166Z,8.77
2022-09-06T06:52:35.143Z,11.67
2022-09-06T06:55:21.040Z,7.10
2022-09-06T06:58:07.566Z,9.25
2022-09-06T07:00:53.945Z,7.72
2022-09-06T07:03:40.243Z,6.75
2022-09-06T07:12:43.153Z,7.90
2022-09-06T07:15:29.228Z,11.38
2022-09-06T07:18:18.539Z,13.60
2022-09-06T07:24:11.126Z,5.93
2022-09-06T07:30:03.940Z,8.95
2022-09-06T07:32:50.189Z,4.28
2022-09-06T07:35:36.487Z,5.50
2022-09-06T07:38:22.958Z,6.82
2022-09-06T07:41:10.833Z,6.38
2022-09-06T07:43:56.830Z,7.45
2022-09-06T07:46:43.232Z,6.85
2022-09-06T07:49:34.231Z,5.78
2022-09-06T07:55:27.730Z,6.43
2022-09-06T07:58:14.402Z,4.65
2022-09-06T08:01:34.234Z,3.17
2022-09-06T08:04:20.484Z,8.82
2022-09-06T08:10:14.764Z,4.78
2022-09-06T08:13:02.417Z,9.60
2022-09-06T08:15:48.957Z,7.35
2022-09-06T08:18:36.054Z,4.75
2022-09-06T08:21:23.928Z,12.57
2022-09-06T08:24:11.203Z,5.40
2022-09-06T08:26:57.245Z,4.78
2022-09-06T08:29:43.720Z,5.53
2022-09-06T08:32:34.356Z,5.90
2022-09-06T08:35:20.910Z,5.20
2022-09-06T08:38:07.260Z,6.45
2022-09-06T08:40:55.333Z,5.78
2022-09-06T08:47:04.256Z,5.68
2022-09-06T08:49:54.833Z,4.25
2022-09-06T08:53:17.355Z,2.97
2022-09-06T08:56:23.329Z,6.82
2022-09-06T08:59:14.465Z,4.38
2022-09-06T09:02:03.132Z,3.60
2022-09-06T09:04:56.362Z,6.38
2022-09-06T09:07:51.977Z,3.80
2022-09-06T09:10:50.562Z,4.63
2022-09-06T09:13:59.329Z,3.38
2022-09-06T09:16:45.877Z,3.08
2022-09-06T09:19:36.629Z,5.47
2022-09-06T09:22:24.992Z,2.10
2022-09-06T09:25:20.422Z,3.97
2022-09-06T09:28:15.445Z,5.65
2022-09-06T09:31:01.704Z,3.63
2022-09-06T09:33:47.868Z,3.13
2022-09-06T09:36:34.068Z,3.40
2022-09-06T09:39:20.254Z,1.35
2022-09-06T09:44:53.816Z,3.00
2022-09-06T09:47:40.057Z,3.20
2022-09-06T09:50:34.721Z,3.42
2022-09-06T09:53:22.868Z,1.83
2022-09-06T09:56:09.263Z,2.20
2022-09-06T09:58:57.703Z,3.00
2022-09-06T10:01:43.805Z,2.97
2022-09-06T10:04:44.970Z,1.52
2022-09-06T10:07:33.504Z,3.75
2022-09-06T10:10:25.528Z,2.67
2022-09-06T10:13:23.556Z,4.03
2022-09-06T10:16:10.177Z,1.92
2022-09-06T10:21:42.306Z,1.70
2022-09-06T10:24:59.018Z,2.50
2022-09-06T10:28:19.005Z,3.40
2022-09-06T10:31:27.329Z,20.95
2022-09-06T10:34:35.441Z,44.80
2022-09-06T10:37:45.409Z,29.30
2022-09-06T10:40:43.049Z,7.18
2022-09-06T10:44:01.054Z,3.30
2022-09-06T10:46:49.327Z,4.10
2022-09-06T10:49:38.820Z,9.60
2022-09-06T10:52:36.732Z,1.65
2022-09-06T10:55:23.734Z,4.30
2022-09-06T10:58:19.721Z,3.25
2022-09-06T11:01:19.787Z,3.93
2022-09-06T11:04:12.792Z,6.13
2022-09-06T11:07:05.136Z,3.97
2022-09-06T11:09:57.693Z,4.50
2022-09-06T11:13:02.804Z,3.97
2022-09-06T11:16:02.321Z,2.47
2022-09-06T11:19:05.484Z,2.63
2022-09-06T11:22:02.289Z,4.10
2022-09-06T11:25:39.009Z,5.47
2022-09-06T11:28:42.813Z,6.97
2022-09-06T11:34:44.168Z,5.90
2022-09-06T11:37:43.777Z,3.33
2022-09-06T11:40:37.916Z,5.35
2022-09-06T11:43:42.370Z,4.40
2022-09-06T11:46:34.719Z,8.98
2022-09-06T11:49:30.871Z,5.53
2022-09-06T11:52:49.134Z,5.95
2022-09-06T11:58:36.095Z,4.35
2022-09-06T12:01:22.317Z,7.03
2022-09-06T12:04:10.261Z,4.97
2022-09-06T12:07:12.189Z,6.97
2022-09-06T12:10:02.226Z,6.25
2022-09-06T12:12:52.529Z,4.07
2022-09-06T12:15:51.813Z,7.45
2022-09-06T12:18:47.333Z,10.70
2022-09-06T12:21:52.245Z,5.65
2022-09-06T12:24:38.902Z,7.60
2022-09-06T12:27:34.411Z,8.93
2022-09-06T12:30:43.745Z,4.03
2022-09-06T12:33:36.844Z,5.88
2022-09-06T12:36:30.371Z,6.63
2022-09-06T12:39:17.441Z,7.43
2022-09-06T12:42:12.600Z,7.95
2022-09-06T12:44:58.658Z,7.57
2022-09-06T12:47:45.299Z,3.88
2022-09-06T12:50:31.624Z,7.30
2022-09-06T12:53:25.452Z,6.15
2022-09-06T12:56:12.693Z,11.25
2022-09-06T12:59:17.210Z,10.07
2022-09-06T13:02:13.722Z,5.28
2022-09-06T13:05:05.551Z,5.40
2022-09-06T13:07:56.168Z,6.43
2022-09-06T13:10:45.389Z,6.30
2022-09-06T13:13:31.742Z,4.57
2022-09-06T13:16:43.075Z,12.52
2022-09-06T13:19:35.177Z,9.82
2022-09-06T13:22:45.225Z,11.63
2022-09-06T13:25:31.281Z,13.50
2022-09-06T13:28:37.694Z,10.38
2022-09-06T13:31:25.272Z,11.35
2022-09-06T13:34:26.658Z,10.63
2022-09-06T13:37:12.756Z,15.18
2022-09-06T13:39:59.813Z,10.40
2022-09-06T13:42:45.906Z,14.07
2022-09-06T13:45:33.754Z,9.60
2022-09-06T13:48:29.126Z,8.30
2022-09-06T13:51:26.576Z,7.07
2022-09-06T13:54:14.248Z,8.77
2022-09-06T13:57:01.794Z,11.55
2022-09-06T13:59:48.189Z,7.45
2022-09-06T14:02:34.359Z,11.30
2022-09-06T14:05:20.714Z,11.43
2022-09-06T14:10:53.377Z,9.68
2022-09-06T14:13:39.595Z,6.07
2022-09-06T14:16:25.928Z,8.30
2022-09-06T14:19:12.257Z,6.28
2022-09-06T14:21:58.344Z,8.35
2022-09-06T14:24:44.633Z,9.25
2022-09-06T14:27:30.962Z,6.13
2022-09-06T14:30:17.571Z,7.63
2022-09-06T14:33:03.904Z,10.38
2022-09-06T14:38:38.121Z,9.70
2022-09-06T14:41:24.277Z,8.38
2022-09-06T14:44:10.985Z,9.80
2022-09-06T14:46:57.028Z,11.45
2022-09-06T14:49:43.305Z,15.05
2022-09-06T14:55:16.289Z,12.95
2022-09-06T14:58:02.474Z,9.23
2022-09-06T15:00:50.179Z,9.25
2022-09-06T15:03:37.897Z,8.52
2022-09-06T15:09:11.638Z,10.63
2022-09-06T15:11:58.216Z,7.93
2022-09-06T15:14:44.490Z,10.48
2022-09-06T15:17:31.634Z,12.73
2022-09-06T15:20:18.257Z,8.73
2022-09-06T15:28:59.017Z,9.55
2022-09-06T15:31:50.178Z,7.65
2022-09-06T15:34:36.558Z,10.77
2022-09-06T15:37:22.868Z,6.93
2022-09-06T15:40:09.768Z,9.13
2022-09-06T15:45:50.019Z,8.88
2022-09-06T15:48:45.106Z,10.02
2022-09-06T15:51:34.257Z,10.05
2022-09-06T15:54:41.105Z,6.72
2022-09-06T15:57:28.860Z,6.18
2022-09-06T16:00:17.867Z,7.88
2022-09-06T16:03:04.326Z,7.13
2022-09-06T16:09:00.153Z,6.28
2022-09-06T16:11:46.511Z,7.82
2022-09-06T16:14:32.589Z,9.93
2022-09-06T16:17:18.926Z,5.95
2022-09-06T16:20:05.610Z,8.18
2022-09-06T16:25:37.705Z,7.15
2022-09-06T16:28:27.017Z,6.82
2022-09-06T16:31:13.324Z,8.20
2022-09-06T16:33:59.294Z,9.90
2022-09-06T16:36:45.461Z,7.78
2022-09-06T16:39:31.384Z,7.43
2022-09-06T16:42:17.909Z,11.75
2022-09-06T16:45:05.001Z,10.77
2022-09-06T16:47:51.041Z,14.63
2022-09-06T16:50:37.084Z,12.05
2022-09-06T16:53:23.979Z,9.73
2022-09-06T16:56:11.677Z,5.85
2022-09-06T16:59:00.127Z,8.55
2022-09-06T17:01:46.428Z,9.30
2022-09-06T17:04:32.593Z,8.85
2022-09-06T17:07:18.957Z,7.85
2022-09-06T17:10:06.652Z,8.77
2022-09-06T17:12:53.244Z,7.60
2022-09-06T17:18:44.163Z,6.97
2022-09-06T17:21:31.287Z,6.70
2022-09-06T17:24:17.581Z,6.40
2022-09-06T17:27:04.833Z,4.47
2022-09-06T17:29:51.105Z,11.13
2022-09-06T17:32:37.064Z,6.70
2022-09-06T17:35:23.102Z,7.07
2022-09-06T17:38:09.410Z,11.75
2022-09-06T17:43:46.284Z,8.80
2022-09-06T17:46:32.520Z,7.57
2022-09-06T17:52:05.008Z,6.90
2022-09-06T17:54:51.276Z,8.15
2022-09-06T17:57:38.544Z,5.15
2022-09-06T18:00:26.320Z,8.07
2022-09-06T18:03:12.496Z,7.45
2022-09-06T18:06:11.487Z,9.20
2022-09-06T18:09:02.234Z,9.13
2022-09-06T18:11:49.167Z,8.50
2022-09-06T18:14:35.784Z,8.18
2022-09-06T18:17:23.945Z,10.27
2022-09-06T18:20:10.099Z,11.40
2022-09-06T18:22:56.390Z,11.68
2022-09-06T18:25:42.818Z,12.38
2022-09-06T18:28:29.518Z,6.93
2022-09-06T18:31:19.261Z,11.55
2022-09-06T18:34:06.962Z,6.95
2022-09-06T18:36:53.582Z,9.35
2022-09-06T18:39:41.845Z,10.80
2022-09-06T18:42:28.608Z,10.63
2022-09-06T18:45:15.222Z,12.43
2022-09-06T18:48:01.418Z,8.32
2022-09-06T18:50:48.433Z,10.73
2022-09-06T18:53:35.360Z,14.75
2022-09-06T18:56:21.659Z,15.77
2022-09-06T18:59:07.939Z,13.55
2022-09-06T19:04:41.565Z,8.53
2022-09-06T19:07:29.785Z,11.07
2022-09-06T19:10:16.740Z,12.50
2022-09-06T19:13:03.635Z,10.65
2022-09-06T19:15:51.115Z,7.55
2022-09-06T19:18:38.889Z,11.02
2022-09-06T19:21:27.465Z,12.07
2022-09-06T19:24:15.693Z,11.68
2022-09-06T19:27:01.966Z,10.07
2022-09-06T19:29:48.837Z,9.70
2022-09-06T19:32:35.677Z,7.95
2022-09-06T19:35:22.197Z,12.10
2022-09-06T19:38:10.428Z,7.03
2022-09-06T19:41:11.336Z,11.82
2022-09-06T19:43:59.145Z,13.70
2022-09-06T19:46:47.208Z,12.27
2022-09-06T19:49:34.255Z,16.85
2022-09-06T19:52:20.407Z,12.25
2022-09-06T19:55:07.250Z,19.70
2022-09-06T19:57:53.636Z,10.07
2022-09-06T20:00:42.993Z,16.88
2022-09-06T20:03:29.404Z,13.52
2022-09-06T20:06:15.615Z,14.55
2022-09-06T20:09:03.450Z,8.90
2022-09-06T20:11:49.934Z,10.75
2022-09-06T20:14:36.413Z,11.27
2022-09-06T20:17:33.619Z,8.40
2022-09-06T20:20:20.693Z,10.00
2022-09-06T20:23:07.575Z,11.65
2022-09-06T20:26:06.899Z,17.30
2022-09-06T20:29:01.349Z,13.90
2022-09-06T20:31:47.819Z,12.30
2022-09-06T20:34:34.315Z,14.13
2022-09-06T20:37:20.654Z,11.05
2022-09-06T20:40:07.760Z,9.48
2022-09-06T20:42:54.238Z,10.25
2022-09-06T20:45:40.699Z,8.63
2022-09-06T20:48:27.293Z,13.38
2022-09-06T20:51:18.949Z,10.68
2022-09-06T20:54:06.048Z,11.85
2022-09-06T20:56:53.754Z,13.20
2022-09-06T20:59:39.985Z,10.10
2022-09-06T21:02:26.440Z,8.93
2022-09-06T21:05:12.806Z,9.75
2022-09-06T21:07:58.963Z,9.25
2022-09-06T21:10:45.958Z,8.75
2022-09-06T21:13:33.460Z,8.48
2022-09-06T21:16:24.275Z,10.90
2022-09-06T21:19:12.540Z,11.32
2022-09-06T21:21:58.557Z,6.13
2022-09-06T21:24:44.992Z,5.72
2022-09-06T21:27:32.004Z,5.88
2022-09-06T21:30:18.866Z,5.47
2022-09-06T21:33:04.866Z,5.82
2022-09-06T21:35:51.009Z,7.43
2022-09-06T21:38:39.316Z,5.30
2022-09-06T21:41:26.715Z,6.25
2022-09-06T21:44:13.215Z,6.10
2022-09-06T21:46:59.988Z,7.38
2022-09-06T21:49:46.405Z,4.32
2022-09-06T21:52:32.676Z,6.07
2022-09-06T21:55:19.008Z,6.00
2022-09-06T21:58:05.373Z,5.70
2022-09-06T22:00:53.370Z,7.00
2022-09-06T22:03:40.357Z,8.27
2022-09-06T22:06:28.963Z,6.78
2022-09-06T22:09:15.451Z,6.78
2022-09-06T22:12:01.866Z,9.82
2022-09-06T22:14:48.145Z,8.73
2022-09-06T22:17:34.702Z,9.05
2022-09-06T22:20:22.852Z,5.43
2022-09-06T22:23:10.017Z,9.63
2022-09-06T22:26:05.032Z,9.55
2022-09-06T22:28:56.096Z,5.15
2022-09-06T22:31:42.720Z,6.50
2022-09-06T22:34:29.353Z,5.47
2022-09-06T22:37:16.186Z,5.82
2022-09-06T22:40:02.708Z,6.50
2022-09-06T22:45:35.925Z,8.50
2022-09-06T22:48:22.822Z,7.82
2022-09-06T22:51:08.897Z,7.30
2022-09-06T22:53:55.112Z,10.85
2022-09-06T22:56:41.839Z,4.50
2022-09-06T22:59:29.104Z,5.18
2022-09-06T23:02:15.183Z,7.25
2022-09-06T23:05:01.104Z,10.75
2022-09-06T23:07:48.965Z,7.20
2022-09-06T23:10:40.378Z,10.45
2022-09-06T23:13:26.524Z,8.43
2022-09-06T23:16:17.004Z,8.03
2022-09-06T23:19:03.921Z,10.75
2022-09-06T23:21:49.982Z,5.72
2022-09-06T23:24:36.287Z,5.97
2022-09-06T23:27:22.288Z,5.43
2022-09-06T23:30:09.615Z,7.13
2022-09-06T23:32:56.445Z,6.13
2022-09-06T23:35:43.676Z,7.63
2022-09-06T23:38:31.563Z,7.95
2022-09-06T23:41:17.725Z,7.82
2022-09-06T23:44:04.076Z,8.13
2022-09-06T23:46:50.721Z,8.23
2022-09-06T23:49:37.128Z,11.05
2022-09-06T23:52:23.097Z,8.97
2022-09-06T23:55:09.586Z,7.63
2022-09-06T23:57:55.761Z,8.38
